Terminal Aerodrome Forecast
Issued by NWS Greer, SC

Home | Current Version | Previous Version | Text Only | Print | Product List | Glossary On
Versions: 1 2 3 4 5 6 7 8 9 10 11 12 13 14 15 16 17 18 19 20 21 22 23 24 25 26 27 28
000
FTUS42 KGSP 162332
TAFCLT
TAF
KCLT 162332Z 1700/1724 28005KT P6SM FEW050 SCT110 BKN250
     FM170300 00000KT P6SM SCT090
     FM170800 14003KT P6SM BKN200
     FM171500 20003KT P6SM SCT040
     FM171900 21005KT P6SM BKN045 PROB30 1719/1724 4SM -TSRA
      OVC025CB=

USA.gov is the U.S. government's official web portal to all federal, state and local government web resources and services.